KBUU

Burlington Municipal Airport

Burlington, Wisconsin, USA
METAR KBUU 232215Z AUTO 27005KT 10SM OVC019 03/M01 A3020 RMK AO2 T00271006
Observed Flight Rules
Feb-23 @ 22:15 UTC (20 minutes ago) Marginal Visual Flight Rules
Wind Visibility Clouds
270° at 5 knots 10 miles
  • Overcast at 1,900' AGL
Temperatures Readings
Current 3°C / 37°F
Dewpoint -1°C / 30°F
Humidity 75%
Altimeter 30.2" Hg
Pressure 1023 hPa
Elevation 237
METAR KBUU 232215Z AUTO 27005KT 10SM OVC019 03/M01 A3020 RMK AO2 T00271006
Observed Flight Rules
Feb-23 @ 22:15 UTC
(20 minutes ago)
MVFR
Wind Visibility
270° at 5 knots 10 miles
Clouds
  • Overcast at 1,900' AGL
Temperature Dewpoint
3°C / 37°F -1°C / 30°F
Humidity Altimeter Pressure
75% 30.2" Hg 1023 hPa